Terminal Aerodrome Forecast
Issued by NWS

Home | Current Version | Previous Version | Text Only | Print | Product List | Glossary On
Versions: 1 2 3 4 5 6 7 8 9 10 11 12 13 14 15 16 17 18 19 20 21 22 23 24 25
000
FTUS41 KOKX 301800 AAA
TAFHPN
TAF AMD
KHPN 301810Z 3018/0118 10005KT P6SM SCT008 OVC015
      TEMPO 3018/3020 SCT015
     FM302000 10007KT P6SM SCT015 BKN025
     FM302300 08005KT P6SM SCT012 OVC025
     FM010200 05007KT P6SM BKN012
     FM010500 02010KT P6SM OVC008
     FM011400 01011G16KT P6SM OVC007
      AMD NOT SKED=

USA.gov is the U.S. government's official web portal to all federal, state and local government web resources and services.